< < Back
Terminal Aerodrome Forecast


Current Version              Previous Versions:   1  2  3  4  5  6  7  8  9  

Terminal Aerodrome Forecast

443
FTUS42 KFFC 020500
TAFMCN
TAF
KMCN 020523Z 0206/0306 00000KT P6SM FEW250
     FM021000 00000KT 4SM BR SCT035
      TEMPO 0210/0213 2SM BR
     FM021400 17004KT P6SM SCT035
     FM030000 16003KT P6SM FEW250=

Latest METAR

377
SAUS80 KWBC 021000 CCA
MTRMCN
METAR KMCN 020953Z AUTO 00000KT 4SM BR CLR 16/16 A3005 RMK AO2 SLP171
T01610161 TSNO


USA.gov is the U.S. government's official web portal to all federal, state and local government web resources and services.